Terminal Aerodrome Forecast
Issued by NWS

Home | Current Version | Previous Version | Text Only | Print | Product List | Glossary On
Versions: 1 2 3 4 5 6 7 8 9 10 11 12 13 14 15 16 17 18 19 20 21 22 23 24 25 26 27
000
FTUS46 KOTX 030029 AAA
TAFPUW
TAF AMD
KPUW 030029Z 0300/0324 29010KT P6SM VCSH BKN060 OVC080
      TEMPO 0300/0303 BKN030
     FM030500 31010KT P6SM BKN120
     FM031000 31005KT P6SM FEW050 FEW250=

USA.gov is the U.S. government's official web portal to all federal, state and local government web resources and services.